Main page
METAR-TAF:

METAR-TAF

Airports :

Nakashibetsu Airport

Nakashibetsu, Japan

latitude: 43-34N, longitude: 144-58E, elevation: 66 m

Current weather observation

The report was made 13 hours and 53 minutes ago, at 09:00 UTC
Wind 2 kt from the North/Northeast
Temperature -4°C
Humidity 63%
Pressure 1015 hPa
Visibility 10 km or more
Few clouds at a height of 2500 ft
Scattered clouds at a height of 4500 ft
Broken clouds at a height of 6000 ft

METAR: RJCN 170900Z 03002KT 9999 FEW025 SCT045 BKN060 M04/M10 Q1015

Time: 07:53 (22:53 UTC)


TAF: missing

Weather observations and forecasts of more than 4000 airports (METAR and TAF reports).

The available stations are represented by yellow and red dots on the map.

Hover mouse over dot to see the name of the station.

Then click to see weather observations and forecasts.

To change the map : click on the green buttons with a black cross to zoom in, on the green button with a dash to zoom out, or on the green arrows for adjacent maps.


METAR-TAF: